Time,TemperatureF,DewpointF,PressureIn,WindDirection,WindDirectionDegrees,WindSpeedMPH,WindSpeedGustMPH,Humidity,HourlyPrecipIn,Conditions,Clouds,dailyrainin,SoftwareType,DateUTC
2013-04-26 00:04:00,34.6,29.0,30.25,ESE,123,0.0,2.0,81,0.00,,,0.00,weatherlink.com 1.10,2013-04-26 04:04:00,
2013-04-26 00:19:00,34.1,29.0,30.25,ESE,109,0.0,2.0,81,0.00,,,0.00,weatherlink.com 1.10,2013-04-26 04:19:00,
2013-04-26 00:34:00,33.6,29.0,30.25,SSE,165,0.0,2.0,82,0.00,,,0.00,weatherlink.com 1.10,2013-04-26 04:34:00,
2013-04-26 00:49:00,33.3,29.0,30.24,ESE,115,1.0,3.0,83,0.00,,,0.00,weatherlink.com 1.10,2013-04-26 04:49:00,
2013-04-26 01:19:00,32.6,28.0,30.25,ESE,110,0.0,4.0,83,0.00,,,0.00,weatherlink.com 1.10,2013-04-26 05:19:00,
2013-04-26 01:34:00,32.0,28.0,30.25,ESE,110,1.0,1.0,84,0.00,,,0.00,weatherlink.com 1.10,2013-04-26 05:34:00,
2013-04-26 01:49:00,31.8,28.0,30.25,ESE,110,0.0,1.0,85,0.00,,,0.00,weatherlink.com 1.10,2013-04-26 05:49:00,
2013-04-26 02:04:00,31.7,28.0,30.25,ESE,110,0.0,1.0,85,0.00,,,0.00,weatherlink.com 1.10,2013-04-26 06:04:00,
2013-04-26 02:19:00,31.6,28.0,30.25,ESE,110,0.0,1.0,85,0.00,,,0.00,weatherlink.com 1.10,2013-04-26 06:19:00,
2013-04-26 02:34:00,31.2,28.0,30.25,ESE,110,1.0,1.0,86,0.00,,,0.00,weatherlink.com 1.10,2013-04-26 06:34:00,
2013-04-26 02:49:00,30.8,27.0,30.25,ESE,110,0.0,1.0,87,0.00,,,0.00,weatherlink.com 1.10,2013-04-26 06:49:00,
2013-04-26 03:19:00,30.7,27.0,30.25,ESE,103,2.0,3.0,87,0.00,,,0.00,weatherlink.com 1.10,2013-04-26 07:19:00,
2013-04-26 03:34:00,30.6,27.0,30.26,ESE,103,0.0,1.0,87,0.00,,,0.00,weatherlink.com 1.10,2013-04-26 07:34:00,
2013-04-26 03:49:00,30.5,27.0,30.27,ESE,103,0.0,1.0,87,0.00,,,0.00,weatherlink.com 1.10,2013-04-26 07:49:00,
2013-04-26 04:04:00,29.9,27.0,30.27,ESE,103,0.0,1.0,88,0.00,,,0.00,weatherlink.com 1.10,2013-04-26 08:04:00,
2013-04-26 04:19:00,30.0,27.0,30.28,ESE,103,0.0,0.0,88,0.00,,,0.00,weatherlink.com 1.10,2013-04-26 08:19:00,
2013-04-26 04:34:00,29.7,27.0,30.28,ESE,103,0.0,0.0,88,0.00,,,0.00,weatherlink.com 1.10,2013-04-26 08:34:00,
2013-04-26 04:49:00,29.4,27.0,30.30,ESE,103,0.0,0.0,89,0.00,,,0.00,weatherlink.com 1.10,2013-04-26 08:49:00,
2013-04-26 05:20:00,29.6,27.0,30.32,North,5,1.0,4.0,90,0.00,,,0.00,weatherlink.com 1.10,2013-04-26 09:20:00,
2013-04-26 05:35:00,30.0,27.0,30.32,North,355,1.0,3.0,89,0.00,,,0.00,weatherlink.com 1.10,2013-04-26 09:35:00,
2013-04-26 05:50:00,30.0,27.0,30.32,NNE,29,1.0,3.0,89,0.00,,,0.00,weatherlink.com 1.10,2013-04-26 09:50:00,
2013-04-26 06:05:00,30.4,27.0,30.34,NNE,13,0.0,6.0,88,0.00,,,0.00,weatherlink.com 1.10,2013-04-26 10:05:00,
2013-04-26 06:20:00,31.3,28.0,30.35,NW,323,0.0,3.0,86,0.00,,,0.00,weatherlink.com 1.10,2013-04-26 10:20:00,
2013-04-26 06:35:00,31.4,28.0,30.35,NNW,340,1.0,4.0,86,0.00,,,0.00,weatherlink.com 1.10,2013-04-26 10:35:00,
2013-04-26 06:50:00,31.5,28.0,30.36,NNW,342,1.0,5.0,86,0.00,,,0.00,weatherlink.com 1.10,2013-04-26 10:50:00,
2013-04-26 07:05:00,32.0,28.0,30.36,North,360,0.0,1.0,86,0.00,,,0.00,weatherlink.com 1.10,2013-04-26 11:05:00,
2013-04-26 07:20:00,32.8,29.0,30.37,NNW,336,0.0,3.0,86,0.00,,,0.00,weatherlink.com 1.10,2013-04-26 11:20:00,
2013-04-26 07:35:00,34.5,30.0,30.38,North,355,1.0,5.0,84,0.00,,,0.00,weatherlink.com 1.10,2013-04-26 11:35:00,
2013-04-26 07:50:00,36.7,32.0,30.38,North,351,3.0,7.0,82,0.00,,,0.00,weatherlink.com 1.10,2013-04-26 11:50:00,
2013-04-26 08:05:00,38.0,32.0,30.38,NNW,342,3.0,5.0,80,0.00,,,0.00,weatherlink.com 1.10,2013-04-26 12:05:00,
2013-04-26 08:20:00,39.5,33.0,30.38,NNW,339,5.0,5.0,78,0.00,,,0.00,weatherlink.com 1.10,2013-04-26 12:20:00,
2013-04-26 08:35:00,40.4,33.0,30.39,WNW,288,2.0,6.0,76,0.00,,,0.00,weatherlink.com 1.10,2013-04-26 12:35:00,
2013-04-26 08:50:00,41.2,34.0,30.39,NE,35,2.0,6.0,75,0.00,,,0.00,weatherlink.com 1.10,2013-04-26 12:50:00,
2013-04-26 09:35:00,43.8,34.0,30.39,NNW,332,3.0,9.0,68,0.00,,,0.00,weatherlink.com 1.10,2013-04-26 13:35:00,
2013-04-26 09:50:00,45.3,33.0,30.39,WNW,292,3.0,7.0,63,0.00,,,0.00,weatherlink.com 1.10,2013-04-26 13:50:00,
2013-04-26 10:05:00,45.2,34.0,30.39,NW,313,3.0,8.0,64,0.00,,,0.00,weatherlink.com 1.10,2013-04-26 14:05:00,
2013-04-26 10:21:00,46.4,33.0,30.39,NNW,327,1.0,9.0,61,0.00,,,0.00,weatherlink.com 1.10,2013-04-26 14:21:00,
2013-04-26 10:36:00,47.3,33.0,30.38,NW,326,5.0,11.0,58,0.00,,,0.00,weatherlink.com 1.10,2013-04-26 14:36:00,
2013-04-26 10:51:00,47.8,31.0,30.39,WNW,301,5.0,11.0,53,0.00,,,0.00,weatherlink.com 1.10,2013-04-26 14:51:00,
2013-04-26 11:06:00,48.5,31.0,30.38,NW,310,3.0,8.0,51,0.00,,,0.00,weatherlink.com 1.10,2013-04-26 15:06:00,
2013-04-26 11:21:00,49.9,31.0,30.38,NNW,332,3.0,9.0,48,0.00,,,0.00,weatherlink.com 1.10,2013-04-26 15:21:00,
2013-04-26 11:36:00,49.7,30.0,30.38,SSE,153,1.0,7.0,47,0.00,,,0.00,weatherlink.com 1.10,2013-04-26 15:36:00,
2013-04-26 11:51:00,50.8,29.0,30.37,NNW,342,5.0,7.0,43,0.00,,,0.00,weatherlink.com 1.10,2013-04-26 15:51:00,
2013-04-26 12:06:00,51.4,29.0,30.37,WNW,302,3.0,10.0,43,0.00,,,0.00,weatherlink.com 1.10,2013-04-26 16:06:00,
2013-04-26 12:21:00,52.0,28.0,30.37,NW,320,1.0,9.0,40,0.00,,,0.00,weatherlink.com 1.10,2013-04-26 16:21:00,
2013-04-26 12:36:00,52.4,29.0,30.37,NW,314,4.0,11.0,40,0.00,,,0.00,weatherlink.com 1.10,2013-04-26 16:36:00,
2013-04-26 12:51:00,52.2,28.0,30.36,East,101,1.0,9.0,40,0.00,,,0.00,weatherlink.com 1.10,2013-04-26 16:51:00,
2013-04-26 13:06:00,53.2,27.0,30.36,NNE,14,7.0,10.0,37,0.00,,,0.00,weatherlink.com 1.10,2013-04-26 17:06:00,
2013-04-26 13:21:00,53.9,28.0,30.36,ENE,65,2.0,10.0,37,0.00,,,0.00,weatherlink.com 1.10,2013-04-26 17:21:00,
2013-04-26 13:36:00,53.9,28.0,30.35,SSW,194,6.0,13.0,37,0.00,,,0.00,weatherlink.com 1.10,2013-04-26 17:36:00,
2013-04-26 13:51:00,55.2,28.0,30.35,NW,321,3.0,10.0,36,0.00,,,0.00,weatherlink.com 1.10,2013-04-26 17:51:00,
2013-04-26 14:09:00,55.4,27.0,30.35,WNW,284,5.0,13.0,33,0.00,,,0.00,weatherlink.com 1.10,2013-04-26 18:09:00,
2013-04-26 14:21:00,55.2,29.0,30.35,NW,311,5.0,6.0,37,0.00,,,0.00,weatherlink.com 1.10,2013-04-26 18:21:00,
2013-04-26 14:36:00,55.1,27.0,30.35,WNW,300,9.0,9.0,34,0.00,,,0.00,weatherlink.com 1.10,2013-04-26 18:36:00,
2013-04-26 14:51:00,54.4,26.0,30.34,NW,315,2.0,4.0,33,0.00,,,0.00,weatherlink.com 1.10,2013-04-26 18:51:00,
2013-04-26 15:06:00,55.5,26.0,30.34,NNE,12,3.0,10.0,32,0.00,,,0.00,weatherlink.com 1.10,2013-04-26 19:06:00,
2013-04-26 15:21:00,56.6,26.0,30.34,ENE,70,2.0,9.0,31,0.00,,,0.00,weatherlink.com 1.10,2013-04-26 19:21:00,
2013-04-26 15:36:00,57.0,26.0,30.34,North,355,2.0,10.0,31,0.00,,,0.00,weatherlink.com 1.10,2013-04-26 19:36:00,
2013-04-26 15:51:00,56.4,26.0,30.34,SW,229,5.0,10.0,31,0.00,,,0.00,weatherlink.com 1.10,2013-04-26 19:51:00,
2013-04-26 16:06:00,56.5,27.0,30.34,NW,306,7.0,11.0,32,0.00,,,0.00,weatherlink.com 1.10,2013-04-26 20:06:00,
2013-04-26 16:21:00,56.3,26.0,30.34,NNW,346,3.0,13.0,31,0.00,,,0.00,weatherlink.com 1.10,2013-04-26 20:21:00,
2013-04-26 16:36:00,56.2,27.0,30.34,WSW,246,3.0,11.0,32,0.00,,,0.00,weatherlink.com 1.10,2013-04-26 20:36:00,
2013-04-26 16:51:00,56.4,29.0,30.34,WSW,252,5.0,7.0,35,0.00,,,0.00,weatherlink.com 1.10,2013-04-26 20:51:00,
2013-04-26 17:06:00,55.6,28.0,30.34,WNW,301,4.0,10.0,35,0.00,,,0.00,weatherlink.com 1.10,2013-04-26 21:06:00,
2013-04-26 17:21:00,55.0,28.0,30.34,North,360,5.0,10.0,36,0.00,,,0.00,weatherlink.com 1.10,2013-04-26 21:21:00,
2013-04-26 17:36:00,54.8,28.0,30.35,NNW,333,6.0,9.0,36,0.00,,,0.00,weatherlink.com 1.10,2013-04-26 21:36:00,
2013-04-26 17:51:00,54.5,28.0,30.36,NE,41,3.0,13.0,36,0.00,,,0.00,weatherlink.com 1.10,2013-04-26 21:51:00,
2013-04-26 18:06:00,53.3,27.0,30.36,North,9,7.0,10.0,37,0.00,,,0.00,weatherlink.com 1.10,2013-04-26 22:06:00,
2013-04-26 18:21:00,53.1,27.0,30.36,NNW,348,4.0,11.0,37,0.00,,,0.00,weatherlink.com 1.10,2013-04-26 22:21:00,
2013-04-26 18:36:00,52.6,27.0,30.37,NNE,20,2.0,10.0,37,0.00,,,0.00,weatherlink.com 1.10,2013-04-26 22:36:00,
2013-04-26 18:51:00,51.8,27.0,30.37,North,5,2.0,11.0,38,0.00,,,0.00,weatherlink.com 1.10,2013-04-26 22:51:00,
2013-04-26 19:06:00,50.6,27.0,30.38,West,273,2.0,11.0,40,0.00,,,0.00,weatherlink.com 1.10,2013-04-26 23:06:00,
2013-04-26 19:21:00,49.7,27.0,30.38,NNW,342,1.0,9.0,42,0.00,,,0.00,weatherlink.com 1.10,2013-04-26 23:21:00,
2013-04-26 19:36:00,48.7,27.0,30.39,WSW,242,4.0,9.0,44,0.00,,,0.00,weatherlink.com 1.10,2013-04-26 23:36:00,
2013-04-26 19:51:00,47.4,27.0,30.39,NW,310,2.0,7.0,46,0.00,,,0.00,weatherlink.com 1.10,2013-04-26 23:51:00,
2013-04-26 20:06:00,46.5,28.0,30.39,NW,325,2.0,7.0,48,0.00,,,0.00,weatherlink.com 1.10,2013-04-27 00:06:00,
2013-04-26 20:21:00,45.7,28.0,30.39,WSW,257,2.0,7.0,50,0.00,,,0.00,weatherlink.com 1.10,2013-04-27 00:21:00,
2013-04-26 20:36:00,45.0,28.0,30.40,West,277,4.0,7.0,52,0.00,,,0.00,weatherlink.com 1.10,2013-04-27 00:36:00,
2013-04-26 20:51:00,44.5,28.0,30.41,NW,314,3.0,7.0,52,0.00,,,0.00,weatherlink.com 1.10,2013-04-27 00:51:00,
2013-04-26 21:07:00,43.6,28.0,30.41,NW,308,3.0,6.0,54,0.00,,,0.00,weatherlink.com 1.10,2013-04-27 01:07:00,
2013-04-26 21:22:00,42.6,28.0,30.41,North,5,3.0,4.0,56,0.00,,,0.00,weatherlink.com 1.10,2013-04-27 01:22:00,
2013-04-26 21:37:00,41.7,28.0,30.42,NNW,348,4.0,5.0,58,0.00,,,0.00,weatherlink.com 1.10,2013-04-27 01:37:00,
2013-04-26 21:52:00,40.9,27.0,30.42,NNW,341,2.0,3.0,59,0.00,,,0.00,weatherlink.com 1.10,2013-04-27 01:52:00,
2013-04-26 22:07:00,40.7,28.0,30.42,North,355,1.0,3.0,60,0.00,,,0.00,weatherlink.com 1.10,2013-04-27 02:07:00,
2013-04-26 22:22:00,39.9,28.0,30.42,North,355,1.0,5.0,62,0.00,,,0.00,weatherlink.com 1.10,2013-04-27 02:22:00,
2013-04-26 22:37:00,39.5,28.0,30.42,North,350,0.0,2.0,63,0.00,,,0.00,weatherlink.com 1.10,2013-04-27 02:37:00,
2013-04-26 22:52:00,39.0,28.0,30.42,NNW,346,0.0,2.0,66,0.00,,,0.00,weatherlink.com 1.10,2013-04-27 02:52:00,
2013-04-26 23:07:00,38.2,29.0,30.42,NNW,330,0.0,2.0,69,0.00,,,0.00,weatherlink.com 1.10,2013-04-27 03:07:00,
2013-04-26 23:22:00,37.6,28.0,30.42,NNW,343,2.0,4.0,69,0.00,,,0.00,weatherlink.com 1.10,2013-04-27 03:22:00,
2013-04-26 23:37:00,37.1,28.0,30.42,NNW,330,1.0,3.0,70,0.00,,,0.00,weatherlink.com 1.10,2013-04-27 03:37:00,
2013-04-26 23:52:00,36.5,28.0,30.42,North,351,2.0,3.0,71,0.00,,,0.00,weatherlink.com 1.10,2013-04-27 03:52:00,